createdAt,value
2019-05-14T00:02:12.231Z,6.32
2019-05-14T00:04:42.286Z,6.40
2019-05-14T00:07:11.583Z,6.48
2019-05-14T00:09:41.319Z,6.53
2019-05-14T00:12:11.384Z,6.41
2019-05-14T00:14:43.324Z,6.45
2019-05-14T00:17:11.322Z,6.81
2019-05-14T00:19:41.652Z,6.75
2019-05-14T00:22:11.490Z,6.77
2019-05-14T00:24:41.720Z,6.72
2019-05-14T00:27:11.475Z,6.69
2019-05-14T00:29:41.707Z,6.58
2019-05-14T00:32:11.162Z,6.37
2019-05-14T00:34:42.208Z,6.01
2019-05-14T00:37:11.475Z,5.84
2019-05-14T00:39:41.641Z,5.78
2019-05-14T00:42:12.418Z,5.65
2019-05-14T00:44:53.565Z,5.50
2019-05-14T00:47:11.303Z,5.19
2019-05-14T00:49:42.278Z,4.92
2019-05-14T00:52:11.683Z,4.96
2019-05-14T00:54:41.605Z,4.90
2019-05-14T00:57:11.825Z,4.78
2019-05-14T00:59:41.703Z,4.63
2019-05-14T01:02:11.404Z,4.47
2019-05-14T01:04:42.544Z,4.34
2019-05-14T01:07:11.877Z,4.20
2019-05-14T01:09:42.194Z,4.00
2019-05-14T01:12:12.270Z,3.86
2019-05-14T01:14:42.357Z,3.77
2019-05-14T01:17:11.344Z,3.65
2019-05-14T01:19:42.206Z,3.62
2019-05-14T01:22:12.229Z,3.40
2019-05-14T01:24:41.752Z,3.36
2019-05-14T01:27:12.362Z,3.36
2019-05-14T01:29:42.546Z,3.34
2019-05-14T01:32:11.654Z,3.39
2019-05-14T01:34:42.039Z,3.41
2019-05-14T01:37:11.632Z,3.45
2019-05-14T01:39:41.756Z,3.58
2019-05-14T01:42:12.396Z,3.58
2019-05-14T01:44:41.397Z,3.62
2019-05-14T01:47:12.453Z,3.69
2019-05-14T01:49:42.466Z,3.62
2019-05-14T01:52:11.243Z,3.72
2019-05-14T01:54:42.423Z,3.81
2019-05-14T01:57:11.539Z,3.85
2019-05-14T01:59:42.613Z,3.93
2019-05-14T02:02:11.604Z,3.94
2019-05-14T02:04:42.387Z,3.94
2019-05-14T02:07:11.594Z,3.86
2019-05-14T02:09:41.943Z,3.85
2019-05-14T02:12:11.650Z,3.94
2019-05-14T02:14:42.537Z,4.06
2019-05-14T02:17:12.357Z,4.11
2019-05-14T02:19:42.582Z,4.11
2019-05-14T02:22:11.429Z,4.13
2019-05-14T02:24:41.757Z,4.08
2019-05-14T02:27:12.337Z,4.03
2019-05-14T02:29:41.591Z,4.03
2019-05-14T02:32:10.844Z,4.04
2019-05-14T02:34:40.301Z,3.99
2019-05-14T02:37:09.452Z,4.01
2019-05-14T02:39:40.838Z,4.03
2019-05-14T02:42:09.341Z,4.06
2019-05-14T02:44:40.842Z,3.95
2019-05-14T02:47:09.870Z,3.92
2019-05-14T02:49:39.884Z,3.89
2019-05-14T02:52:10.057Z,3.88
2019-05-14T02:54:40.509Z,3.86
2019-05-14T02:57:10.472Z,3.78
2019-05-14T02:59:39.740Z,3.76
2019-05-14T03:02:09.938Z,3.57
2019-05-14T03:04:39.485Z,3.67
2019-05-14T03:07:10.980Z,3.72
2019-05-14T03:09:40.294Z,3.76
2019-05-14T03:12:10.042Z,3.68
2019-05-14T03:14:39.726Z,3.74
2019-05-14T03:17:10.472Z,3.78
2019-05-14T03:19:40.603Z,3.65
2019-05-14T03:22:10.319Z,3.60
2019-05-14T03:24:39.871Z,3.45
2019-05-14T03:27:09.774Z,3.49
2019-05-14T03:29:39.781Z,3.52
2019-05-14T03:32:12.764Z,3.49
2019-05-14T03:34:43.079Z,3.47
2019-05-14T03:37:12.765Z,3.47
2019-05-14T03:39:39.892Z,3.46
2019-05-14T03:42:09.481Z,3.45
2019-05-14T03:44:39.862Z,3.45
2019-05-14T03:47:10.288Z,3.42
2019-05-14T03:49:39.977Z,3.44
2019-05-14T03:52:09.667Z,3.42
2019-05-14T03:54:40.681Z,3.51
2019-05-14T03:57:09.655Z,3.51
2019-05-14T03:59:40.216Z,3.52
2019-05-14T04:02:10.169Z,3.76
2019-05-14T04:04:39.525Z,3.76
2019-05-14T04:07:10.115Z,3.79
2019-05-14T04:09:40.478Z,3.74
2019-05-14T04:12:10.202Z,3.80
2019-05-14T04:14:40.652Z,3.66
2019-05-14T04:17:15.406Z,3.78
2019-05-14T04:19:43.264Z,3.90
2019-05-14T04:22:13.711Z,3.97
2019-05-14T04:24:43.653Z,4.08
2019-05-14T04:27:14.108Z,4.08
2019-05-14T04:29:42.801Z,4.23
2019-05-14T04:32:11.573Z,4.34
2019-05-14T04:34:40.428Z,4.27
2019-05-14T04:37:10.239Z,4.42
2019-05-14T04:39:39.816Z,4.55
2019-05-14T04:42:09.682Z,4.60
2019-05-14T04:44:40.445Z,4.72
2019-05-14T04:47:25.260Z,4.77
2019-05-14T04:49:40.088Z,4.97
2019-05-14T04:52:09.955Z,5.06
2019-05-14T04:54:39.598Z,5.36
2019-05-14T04:57:10.335Z,5.39
2019-05-14T04:59:39.945Z,5.44
2019-05-14T05:02:09.712Z,5.70
2019-05-14T05:04:41.120Z,5.60
2019-05-14T05:07:09.867Z,5.79
2019-05-14T05:09:39.803Z,5.99
2019-05-14T05:12:09.262Z,5.89
2019-05-14T05:14:38.910Z,5.97
2019-05-14T05:17:09.238Z,5.89
2019-05-14T05:19:39.344Z,5.91
2019-05-14T05:22:08.212Z,5.79
2019-05-14T05:24:38.097Z,5.54
2019-05-14T05:27:09.116Z,5.82
2019-05-14T05:29:39.226Z,5.95
2019-05-14T05:32:08.667Z,6.04
2019-05-14T05:34:38.929Z,6.05
2019-05-14T05:37:08.632Z,6.12
2019-05-14T05:39:38.663Z,6.31
2019-05-14T05:42:09.219Z,6.56
2019-05-14T05:44:39.382Z,6.37
2019-05-14T05:47:09.244Z,6.70
2019-05-14T05:49:38.258Z,6.98
2019-05-14T05:52:08.571Z,7.10
2019-05-14T05:54:38.459Z,7.07
2019-05-14T05:57:09.241Z,7.27
2019-05-14T05:59:39.319Z,7.54
2019-05-14T06:02:09.401Z,7.54
2019-05-14T06:04:39.309Z,7.75
2019-05-14T06:07:08.879Z,7.88
2019-05-14T06:09:38.125Z,8.11
2019-05-14T06:12:08.737Z,8.25
2019-05-14T06:14:38.209Z,8.29
2019-05-14T06:17:08.494Z,8.56
2019-05-14T06:19:38.214Z,8.61
2019-05-14T06:22:09.580Z,8.45
2019-05-14T06:24:38.960Z,8.25
2019-05-14T06:27:09.503Z,8.30
2019-05-14T06:29:38.293Z,8.07
2019-05-14T06:32:09.094Z,8.32
2019-05-14T06:34:38.293Z,8.65
2019-05-14T06:37:08.413Z,8.77
2019-05-14T06:39:39.101Z,9.01
2019-05-14T06:42:08.790Z,9.25
2019-05-14T06:44:38.545Z,9.54
2019-05-14T06:47:09.327Z,9.64
2019-05-14T06:49:38.591Z,9.43
2019-05-14T06:52:08.808Z,8.91
2019-05-14T06:54:38.728Z,8.69
2019-05-14T06:57:08.932Z,8.11
2019-05-14T06:59:38.434Z,8.17
2019-05-14T07:02:08.671Z,8.53
2019-05-14T07:04:39.471Z,8.61
2019-05-14T07:07:08.519Z,8.48
2019-05-14T07:09:38.502Z,8.58
2019-05-14T07:12:09.174Z,8.81
2019-05-14T07:14:38.839Z,9.39
2019-05-14T07:17:09.077Z,9.79
2019-05-14T07:19:38.556Z,9.92
2019-05-14T07:22:08.930Z,10.18
2019-05-14T07:24:40.413Z,9.90
2019-05-14T07:27:09.431Z,9.74
2019-05-14T07:29:38.821Z,9.37
2019-05-14T07:32:08.989Z,9.39
2019-05-14T07:34:38.825Z,9.86
2019-05-14T07:37:09.392Z,10.41
2019-05-14T07:39:38.603Z,10.36
2019-05-14T07:42:09.867Z,9.99
2019-05-14T07:44:39.056Z,10.23
2019-05-14T07:47:08.325Z,10.14
2019-05-14T07:49:38.531Z,10.37
2019-05-14T07:52:09.346Z,10.78
2019-05-14T07:54:38.970Z,11.21
2019-05-14T07:57:08.659Z,11.01
2019-05-14T07:59:38.122Z,11.10
2019-05-14T08:02:09.101Z,11.06
2019-05-14T08:04:38.157Z,10.89
2019-05-14T08:07:08.917Z,10.44
2019-05-14T08:09:38.890Z,10.24
2019-05-14T08:12:09.267Z,10.37
2019-05-14T08:14:46.453Z,10.18
2019-05-14T08:17:08.657Z,10.37
2019-05-14T08:19:38.561Z,10.26
2019-05-14T08:22:09.505Z,10.27
2019-05-14T08:24:38.511Z,10.03
2019-05-14T08:27:08.565Z,9.81
2019-05-14T08:29:39.907Z,9.75
2019-05-14T08:32:08.877Z,9.75
2019-05-14T08:34:38.936Z,10.16
2019-05-14T08:37:08.215Z,10.59
2019-05-14T08:39:39.237Z,10.58
2019-05-14T08:42:08.481Z,10.69
2019-05-14T08:44:38.959Z,10.79
2019-05-14T08:47:09.640Z,10.33
2019-05-14T08:49:45.857Z,10.25
2019-05-14T08:52:08.769Z,10.45
2019-05-14T08:54:39.143Z,10.67
2019-05-14T08:57:09.767Z,10.66
2019-05-14T08:59:39.637Z,10.35
2019-05-14T09:02:10.614Z,10.23
2019-05-14T09:04:42.764Z,10.23
2019-05-14T09:07:09.536Z,10.15
2019-05-14T09:09:38.346Z,9.91
2019-05-14T09:12:12.135Z,9.85
2019-05-14T09:14:38.821Z,9.95
2019-05-14T09:17:09.851Z,10.52
2019-05-14T09:19:40.821Z,11.12
2019-05-14T09:22:09.611Z,11.39
2019-05-14T09:24:38.870Z,11.45
2019-05-14T09:27:08.452Z,11.67
2019-05-14T09:29:39.289Z,11.52
2019-05-14T09:32:09.645Z,11.83
2019-05-14T09:34:39.311Z,11.90
2019-05-14T09:37:08.584Z,12.40
2019-05-14T09:39:38.584Z,12.40
2019-05-14T09:42:08.217Z,12.50
2019-05-14T09:44:38.737Z,12.70
2019-05-14T09:47:08.618Z,12.67
2019-05-14T09:49:38.843Z,12.20
2019-05-14T09:52:09.095Z,12.06
2019-05-14T09:54:41.537Z,11.97
2019-05-14T09:57:08.444Z,12.32
2019-05-14T09:59:38.436Z,12.66
2019-05-14T10:02:09.187Z,13.18
2019-05-14T10:04:39.198Z,13.14
2019-05-14T10:07:08.712Z,13.38
2019-05-14T10:09:39.160Z,13.23
2019-05-14T10:12:08.945Z,12.95
2019-05-14T10:14:39.402Z,12.32
2019-05-14T10:17:08.017Z,11.74
2019-05-14T10:19:39.305Z,11.91
2019-05-14T10:22:08.351Z,12.61
2019-05-14T10:24:38.562Z,13.24
2019-05-14T10:27:08.982Z,13.34
2019-05-14T10:29:39.337Z,13.02
2019-05-14T10:32:08.685Z,12.70
2019-05-14T10:34:37.435Z,12.51
2019-05-14T10:37:08.376Z,12.01
2019-05-14T10:39:38.892Z,11.36
2019-05-14T10:42:08.308Z,10.75
2019-05-14T10:44:38.766Z,10.50
2019-05-14T10:47:08.960Z,10.52
2019-05-14T10:49:38.692Z,10.24
2019-05-14T10:52:08.275Z,10.09
2019-05-14T10:54:40.251Z,10.18
2019-05-14T10:57:09.738Z,10.59
2019-05-14T10:59:37.384Z,11.14
2019-05-14T11:02:05.858Z,11.24
2019-05-14T11:04:34.704Z,11.07
2019-05-14T11:07:03.197Z,10.97
2019-05-14T11:09:31.687Z,11.13
2019-05-14T11:12:00.168Z,10.80
2019-05-14T11:14:31.671Z,10.52
2019-05-14T11:16:59.277Z,10.31
2019-05-14T11:19:28.227Z,10.11
2019-05-14T11:21:57.956Z,9.41
2019-05-14T11:24:26.477Z,9.05
2019-05-14T11:26:54.960Z,9.22
2019-05-14T11:29:23.444Z,9.77
2019-05-14T11:31:51.928Z,10.31
2019-05-14T11:34:20.421Z,10.49
2019-05-14T11:36:49.707Z,11.23
2019-05-14T11:39:18.372Z,11.30
2019-05-14T11:41:49.118Z,10.74
2019-05-14T11:44:17.070Z,10.05
2019-05-14T11:46:52.445Z,9.50
2019-05-14T11:49:15.787Z,9.39
2019-05-14T11:52:00.657Z,9.27
2019-05-14T11:54:14.559Z,9.29
2019-05-14T11:56:43.032Z,9.21
2019-05-14T11:59:11.535Z,9.45
2019-05-14T12:01:40.009Z,9.53
2019-05-14T12:04:09.075Z,9.55
2019-05-14T12:06:38.984Z,9.55
2019-05-14T12:09:11.755Z,9.58
2019-05-14T12:11:38.613Z,9.38
2019-05-14T12:14:08.893Z,9.43
2019-05-14T12:16:40.110Z,9.49
2019-05-14T12:19:11.585Z,9.61
2019-05-14T12:21:39.793Z,9.82
2019-05-14T12:24:13.397Z,9.57
2019-05-14T12:26:38.829Z,9.28
2019-05-14T12:29:09.592Z,9.08
2019-05-14T12:31:38.578Z,9.33
2019-05-14T12:34:07.260Z,9.64
2019-05-14T12:36:38.615Z,9.72
2019-05-14T12:39:09.633Z,9.71
2019-05-14T12:41:38.441Z,9.70
2019-05-14T12:44:09.361Z,10.06
2019-05-14T12:46:37.148Z,10.15
2019-05-14T12:49:05.642Z,10.52
2019-05-14T12:51:37.864Z,10.91
2019-05-14T12:54:04.431Z,10.82
2019-05-14T12:56:32.923Z,11.12
2019-05-14T12:59:01.404Z,11.78
2019-05-14T13:01:29.926Z,12.26
2019-05-14T13:03:59.224Z,12.77
2019-05-14T13:06:29.358Z,12.66
2019-05-14T13:08:58.583Z,12.71
2019-05-14T13:11:28.010Z,12.81
2019-05-14T13:13:58.572Z,13.10
2019-05-14T13:16:28.475Z,13.14
2019-05-14T13:18:59.699Z,12.95
2019-05-14T13:21:28.963Z,12.32
2019-05-14T13:23:57.639Z,12.16
2019-05-14T13:26:26.136Z,12.32
2019-05-14T13:28:54.617Z,12.71
2019-05-14T13:31:23.110Z,13.58
2019-05-14T13:33:51.589Z,15.38
2019-05-14T13:36:20.841Z,16.92
2019-05-14T13:38:49.358Z,18.44
2019-05-14T13:41:19.227Z,18.99
2019-05-14T13:43:50.525Z,19.61
2019-05-14T13:46:18.939Z,20.26
2019-05-14T13:48:49.866Z,18.92
2019-05-14T13:51:19.527Z,20.10
2019-05-14T13:53:49.840Z,22.47
2019-05-14T13:56:18.875Z,20.93
2019-05-14T13:58:48.926Z,19.71
2019-05-14T14:01:19.278Z,20.66
2019-05-14T14:04:02.411Z,20.14
2019-05-14T14:06:20.665Z,18.41
2019-05-14T14:08:48.869Z,16.76
2019-05-14T14:11:19.373Z,15.77
2019-05-14T14:13:48.928Z,14.73
2019-05-14T14:16:19.719Z,14.15
2019-05-14T14:18:50.092Z,13.54
2019-05-14T14:21:19.606Z,13.09
2019-05-14T14:23:49.458Z,12.76
2019-05-14T14:26:18.573Z,12.73
2019-05-14T14:28:49.310Z,12.17
2019-05-14T14:31:18.932Z,12.21
2019-05-14T14:33:48.718Z,12.84
2019-05-14T14:36:19.929Z,13.50
2019-05-14T14:38:49.431Z,14.12
2019-05-14T14:41:19.355Z,14.26
2019-05-14T14:43:53.630Z,14.83
2019-05-14T14:46:19.598Z,17.52
2019-05-14T14:48:49.428Z,18.18
2019-05-14T14:51:19.287Z,16.85
2019-05-14T14:53:59.237Z,15.92
2019-05-14T14:56:18.899Z,14.24
2019-05-14T14:58:49.309Z,13.69
2019-05-14T15:01:19.522Z,13.29
2019-05-14T15:03:49.720Z,12.89
2019-05-14T15:06:18.348Z,12.48
2019-05-14T15:08:49.371Z,11.82
2019-05-14T15:11:17.019Z,11.72
2019-05-14T15:13:48.079Z,11.72
2019-05-14T15:16:15.907Z,11.58
2019-05-14T15:18:44.443Z,11.58
2019-05-14T15:21:12.988Z,11.62
2019-05-14T15:23:43.564Z,11.35
2019-05-14T15:26:12.294Z,11.47
2019-05-14T15:28:40.861Z,11.53
2019-05-14T15:31:09.360Z,11.22
2019-05-14T15:33:37.849Z,10.88
2019-05-14T15:36:08.783Z,11.44
2019-05-14T15:38:39.362Z,11.55
2019-05-14T15:41:12.724Z,11.86
2019-05-14T15:43:39.549Z,11.90
2019-05-14T15:46:08.731Z,12.08
2019-05-14T15:48:39.474Z,12.57
2019-05-14T15:51:14.371Z,12.72
2019-05-14T15:53:38.605Z,13.21
2019-05-14T15:56:08.047Z,13.41
2019-05-14T15:58:38.901Z,13.97
2019-05-14T16:01:10.152Z,14.23
2019-05-14T16:03:41.328Z,13.46
2019-05-14T16:06:08.957Z,13.90
2019-05-14T16:08:40.155Z,14.39
2019-05-14T16:11:11.470Z,14.62
2019-05-14T16:13:39.806Z,14.55
2019-05-14T16:16:10.499Z,14.51
2019-05-14T16:18:38.624Z,14.44
2019-05-14T16:21:10.234Z,15.68
2019-05-14T16:23:38.740Z,16.36
2019-05-14T16:26:08.864Z,17.92
2019-05-14T16:28:39.436Z,19.56
2019-05-14T16:31:08.586Z,21.41
2019-05-14T16:33:40.361Z,20.06
2019-05-14T16:36:08.806Z,19.81
2019-05-14T16:38:39.472Z,20.71
2019-05-14T16:41:07.743Z,20.39
2019-05-14T16:43:36.236Z,20.74
2019-05-14T16:46:04.779Z,21.39
2019-05-14T16:48:33.291Z,21.75
2019-05-14T16:51:01.744Z,22.03
2019-05-14T16:53:30.248Z,20.01
2019-05-14T16:55:58.712Z,18.45
2019-05-14T16:58:29.213Z,16.23
2019-05-14T17:00:58.851Z,15.03
2019-05-14T17:03:29.745Z,15.64
2019-05-14T17:05:58.102Z,16.31
2019-05-14T17:08:28.503Z,16.83
2019-05-14T17:10:59.017Z,17.67
2019-05-14T17:13:28.570Z,17.10
2019-05-14T17:15:58.920Z,16.50
2019-05-14T17:18:28.725Z,17.09
2019-05-14T17:20:59.458Z,17.30
2019-05-14T17:23:28.388Z,16.28
2019-05-14T17:25:57.970Z,15.69
2019-05-14T17:28:28.645Z,14.12
2019-05-14T17:30:56.794Z,13.86
2019-05-14T17:33:25.278Z,13.93
2019-05-14T17:35:53.803Z,14.03
2019-05-14T17:38:22.264Z,14.38
2019-05-14T17:40:50.771Z,13.92
2019-05-14T17:43:22.866Z,13.26
2019-05-14T17:45:49.467Z,12.84
2019-05-14T17:48:18.359Z,12.53
2019-05-14T17:50:49.162Z,12.22
2019-05-14T17:53:18.342Z,11.94
2019-05-14T17:55:50.145Z,11.61
2019-05-14T17:58:18.912Z,11.42
2019-05-14T18:00:47.477Z,10.93
2019-05-14T18:03:18.228Z,10.84
2019-05-14T18:05:46.352Z,10.80
2019-05-14T18:08:14.834Z,10.92
2019-05-14T18:10:43.398Z,10.37
2019-05-14T18:13:12.043Z,10.53
2019-05-14T18:15:40.542Z,10.49
2019-05-14T18:18:09.157Z,10.36
2019-05-14T18:20:39.438Z,10.56
2019-05-14T18:23:11.610Z,10.62
2019-05-14T18:25:38.902Z,10.61
2019-05-14T18:28:09.305Z,10.65
2019-05-14T18:30:38.733Z,10.15
2019-05-14T18:33:07.972Z,10.08
2019-05-14T18:35:45.203Z,9.98
2019-05-14T18:38:08.271Z,9.91
2019-05-14T18:40:36.814Z,9.77
2019-05-14T18:43:05.296Z,9.55
2019-05-14T18:45:33.858Z,9.36
2019-05-14T18:48:02.400Z,9.23
2019-05-14T18:50:30.899Z,9.11
2019-05-14T18:52:59.872Z,8.96
2019-05-14T18:55:29.357Z,8.81
2019-05-14T18:57:59.317Z,8.63
2019-05-14T19:00:29.382Z,8.51
2019-05-14T19:02:58.159Z,8.53
2019-05-14T19:05:29.196Z,8.38
2019-05-14T19:07:59.126Z,8.26
2019-05-14T19:10:28.049Z,8.23
2019-05-14T19:12:58.768Z,8.27
2019-05-14T19:15:26.910Z,8.34
2019-05-14T19:17:57.915Z,8.36
2019-05-14T19:20:25.601Z,8.35
2019-05-14T19:22:54.110Z,8.08
2019-05-14T19:25:22.570Z,8.08
2019-05-14T19:27:51.064Z,8.02
2019-05-14T19:30:19.670Z,8.07
2019-05-14T19:32:48.650Z,7.91
2019-05-14T19:35:19.255Z,7.89
2019-05-14T19:37:48.702Z,7.86
2019-05-14T19:40:18.961Z,7.71
2019-05-14T19:42:48.556Z,7.49
2019-05-14T19:45:17.428Z,7.33
2019-05-14T19:47:45.993Z,7.26
2019-05-14T19:50:14.925Z,7.28
2019-05-14T19:52:43.813Z,7.28
2019-05-14T19:55:12.622Z,7.19
2019-05-14T19:57:41.121Z,7.28
2019-05-14T20:00:10.429Z,7.28
2019-05-14T20:02:39.362Z,7.27
2019-05-14T20:05:09.073Z,7.24
2019-05-14T20:07:38.720Z,7.15
2019-05-14T20:10:09.431Z,7.08
2019-05-14T20:12:39.196Z,7.04
2019-05-14T20:15:09.500Z,7.03
2019-05-14T20:17:38.579Z,6.99
2019-05-14T20:20:08.895Z,7.06
2019-05-14T20:22:39.353Z,7.04
2019-05-14T20:25:10.059Z,6.80
2019-05-14T20:27:39.363Z,6.85
2019-05-14T20:30:09.921Z,6.67
2019-05-14T20:32:38.857Z,6.74
2019-05-14T20:35:08.951Z,6.92
2019-05-14T20:37:39.071Z,7.02
2019-05-14T20:40:09.936Z,7.07
2019-05-14T20:42:39.474Z,7.12
2019-05-14T20:45:08.601Z,7.09
2019-05-14T20:47:39.031Z,7.16
2019-05-14T20:50:08.899Z,7.23
2019-05-14T20:52:37.953Z,7.19
2019-05-14T20:55:09.531Z,7.21
2019-05-14T20:57:38.471Z,7.18
2019-05-14T21:00:11.380Z,7.09
2019-05-14T21:02:39.755Z,7.00
2019-05-14T21:05:13.367Z,6.96
2019-05-14T21:07:39.641Z,6.93
2019-05-14T21:10:09.153Z,6.93
2019-05-14T21:12:39.487Z,6.94
2019-05-14T21:15:09.220Z,6.87
2019-05-14T21:17:38.328Z,6.70
2019-05-14T21:20:09.065Z,6.54
2019-05-14T21:22:39.647Z,6.64
2019-05-14T21:25:11.277Z,6.75
2019-05-14T21:27:47.486Z,6.87
2019-05-14T21:30:09.348Z,6.95
2019-05-14T21:32:42.020Z,7.08
2019-05-14T21:35:08.366Z,7.04
2019-05-14T21:37:39.234Z,7.10
2019-05-14T21:40:09.849Z,7.14
2019-05-14T21:42:38.796Z,7.20
2019-05-14T21:45:09.868Z,7.21
2019-05-14T21:47:38.863Z,7.28
2019-05-14T21:50:08.927Z,7.30
2019-05-14T21:52:39.246Z,7.27
2019-05-14T21:55:08.196Z,7.27
2019-05-14T21:57:38.231Z,7.17
2019-05-14T22:00:21.738Z,7.20
2019-05-14T22:02:50.361Z,7.22
2019-05-14T22:05:19.165Z,7.21
2019-05-14T22:07:48.506Z,7.07
2019-05-14T22:10:19.110Z,7.08
2019-05-14T22:12:48.730Z,7.03
2019-05-14T22:15:18.420Z,6.99
2019-05-14T22:17:49.116Z,6.94
2019-05-14T22:20:19.173Z,7.03
2019-05-14T22:22:48.384Z,7.06
2019-05-14T22:25:18.942Z,7.13
2019-05-14T22:27:48.440Z,7.17
2019-05-14T22:30:18.202Z,7.26
2019-05-14T22:32:46.885Z,7.32
2019-05-14T22:35:15.520Z,7.34
2019-05-14T22:37:43.984Z,7.36
2019-05-14T22:40:13.102Z,7.43
2019-05-14T22:42:41.565Z,7.46
2019-05-14T22:45:10.298Z,7.55
2019-05-14T22:47:40.533Z,7.41
2019-05-14T22:50:09.783Z,7.22
2019-05-14T22:52:38.781Z,7.11
2019-05-14T22:55:07.683Z,7.18
2019-05-14T22:57:38.912Z,7.07
2019-05-14T23:00:08.594Z,7.23
2019-05-14T23:02:38.100Z,7.31
2019-05-14T23:05:08.430Z,7.31
2019-05-14T23:07:38.492Z,7.34
2019-05-14T23:10:08.927Z,7.33
2019-05-14T23:12:38.573Z,7.32
2019-05-14T23:15:07.827Z,7.34
2019-05-14T23:17:38.707Z,7.37
2019-05-14T23:20:09.004Z,7.34
2019-05-14T23:22:38.949Z,7.34
2019-05-14T23:25:08.986Z,7.33
2019-05-14T23:27:39.018Z,7.33
2019-05-14T23:30:08.606Z,7.31
2019-05-14T23:32:38.401Z,7.28
2019-05-14T23:35:08.069Z,7.08
2019-05-14T23:37:36.541Z,7.04
2019-05-14T23:40:08.392Z,6.95
2019-05-14T23:42:39.044Z,6.88
2019-05-14T23:45:08.266Z,6.89
2019-05-14T23:47:38.432Z,6.80
2019-05-14T23:50:08.172Z,6.82
2019-05-14T23:52:38.776Z,6.80
2019-05-14T23:55:08.539Z,6.77
2019-05-14T23:57:37.177Z,6.86
